createdAt,value
2017-04-07T00:00:19.643Z,42.33
2017-04-07T00:00:51.935Z,42.33
2017-04-07T00:01:24.249Z,42.53
2017-04-07T00:01:56.554Z,42.53
2017-04-07T00:02:28.855Z,42.43
2017-04-07T00:03:01.163Z,42.53
2017-04-07T00:03:33.480Z,42.63
2017-04-07T00:04:05.786Z,42.53
2017-04-07T00:04:38.106Z,42.43
2017-04-07T00:05:10.421Z,42.43
2017-04-07T00:05:42.741Z,42.43
2017-04-07T00:06:15.055Z,42.53
2017-04-07T00:06:47.379Z,42.53
2017-04-07T00:07:19.685Z,42.33
2017-04-07T00:07:51.998Z,42.43
2017-04-07T00:08:24.310Z,42.53
2017-04-07T00:08:56.626Z,42.33
2017-04-07T00:09:28.969Z,42.33
2017-04-07T00:10:01.279Z,42.43
2017-04-07T00:10:33.611Z,42.43
2017-04-07T00:11:05.943Z,42.43
2017-04-07T00:11:38.287Z,42.63
2017-04-07T00:12:10.598Z,42.63
2017-04-07T00:12:42.857Z,42.72
2017-04-07T00:13:15.121Z,42.53
2017-04-07T00:13:47.360Z,42.72
2017-04-07T00:14:19.608Z,42.63
2017-04-07T00:14:51.857Z,42.63
2017-04-07T00:15:24.116Z,42.72
2017-04-07T00:15:56.361Z,42.63
2017-04-07T00:16:28.604Z,42.63
2017-04-07T00:17:00.854Z,42.63
2017-04-07T00:17:33.101Z,42.53
2017-04-07T00:18:05.331Z,42.63
2017-04-07T00:18:37.585Z,42.53
2017-04-07T00:19:09.829Z,42.72
2017-04-07T00:19:42.077Z,42.63
2017-04-07T00:20:14.330Z,42.63
2017-04-07T00:20:47.390Z,42.6
2017-04-07T00:21:19.633Z,42.6
2017-04-07T00:21:51.902Z,42.6
2017-04-07T00:22:24.237Z,42.7
2017-04-07T00:22:56.558Z,42.63
2017-04-07T00:23:28.888Z,42.63
2017-04-07T00:24:01.212Z,42.7
2017-04-07T00:24:33.529Z,42.6
2017-04-07T00:25:05.844Z,42.7
2017-04-07T00:25:38.169Z,42.7
2017-04-07T00:26:10.497Z,42.72
2017-04-07T00:26:42.822Z,42.8
2017-04-07T00:27:15.155Z,42.7
2017-04-07T00:27:47.487Z,42.8
2017-04-07T00:28:19.808Z,42.89
2017-04-07T00:28:52.144Z,42.89
2017-04-07T00:29:24.461Z,42.8
2017-04-07T00:29:56.770Z,43.01
2017-04-07T00:30:29.095Z,42.8
2017-04-07T00:31:01.415Z,42.8
2017-04-07T00:31:33.753Z,42.82
2017-04-07T00:32:06.070Z,42.72
2017-04-07T00:32:38.351Z,42.8
2017-04-07T00:33:10.588Z,42.7
2017-04-07T00:33:42.836Z,42.7
2017-04-07T00:34:15.074Z,43.01
2017-04-07T00:34:48.235Z,42.8
2017-04-07T00:35:20.483Z,42.8
2017-04-07T00:35:52.747Z,42.89
2017-04-07T00:36:24.981Z,42.7
2017-04-07T00:36:57.221Z,42.89
2017-04-07T00:37:29.481Z,42.72
2017-04-07T00:38:01.731Z,42.89
2017-04-07T00:38:34.029Z,42.7
2017-04-07T00:39:06.268Z,42.89
2017-04-07T00:39:39.184Z,42.5
2017-04-07T00:40:11.422Z,42.89
2017-04-07T00:40:43.710Z,42.5
2017-04-07T00:41:15.968Z,42.6
2017-04-07T00:41:48.211Z,42.6
2017-04-07T00:42:21.177Z,42.89
2017-04-07T00:42:53.426Z,42.5
2017-04-07T00:43:26.339Z,42.99
2017-04-07T00:43:58.598Z,42.99
2017-04-07T00:44:30.843Z,42.89
2017-04-07T00:45:03.096Z,42.99
2017-04-07T00:45:35.368Z,43.08
2017-04-07T00:46:07.662Z,42.89
2017-04-07T00:46:40.054Z,43.08
2017-04-07T00:47:12.291Z,42.7
2017-04-07T00:47:44.525Z,43.08
2017-04-07T00:48:17.359Z,43.08
2017-04-07T00:48:50.297Z,42.91
2017-04-07T00:49:22.538Z,42.99
2017-04-07T00:49:54.784Z,42.8
2017-04-07T00:50:27.025Z,42.8
2017-04-07T00:51:00.191Z,42.7
2017-04-07T00:51:32.447Z,42.8
2017-04-07T00:52:04.717Z,42.8
2017-04-07T00:52:37.037Z,42.6
2017-04-07T00:53:09.366Z,42.7
2017-04-07T00:53:41.676Z,42.89
2017-04-07T00:54:13.989Z,42.8
2017-04-07T00:54:46.331Z,42.8
2017-04-07T00:55:18.660Z,42.7
2017-04-07T00:55:50.982Z,42.8
2017-04-07T00:56:23.303Z,42.7
2017-04-07T00:56:55.617Z,42.8
2017-04-07T00:57:27.932Z,42.6
2017-04-07T00:58:00.252Z,43.08
2017-04-07T00:58:32.568Z,42.7
2017-04-07T00:59:04.907Z,42.8
2017-04-07T00:59:37.252Z,42.7
2017-04-07T01:00:09.581Z,42.7
2017-04-07T01:00:41.918Z,42.89
2017-04-07T01:01:14.249Z,42.8
2017-04-07T01:01:46.583Z,42.6
2017-04-07T01:02:18.925Z,42.7
2017-04-07T01:02:51.262Z,42.7
2017-04-07T01:03:23.587Z,42.7
2017-04-07T01:03:55.918Z,42.89
2017-04-07T01:04:28.241Z,42.89
2017-04-07T01:05:00.566Z,42.99
2017-04-07T01:05:32.884Z,42.89
2017-04-07T01:06:05.206Z,42.7
2017-04-07T01:06:37.541Z,42.7
2017-04-07T01:07:09.872Z,42.89
2017-04-07T01:07:42.207Z,42.89
2017-04-07T01:08:14.536Z,42.8
2017-04-07T01:08:46.869Z,42.7
2017-04-07T01:09:19.220Z,42.8
2017-04-07T01:09:51.559Z,42.8
2017-04-07T01:10:23.895Z,42.6
2017-04-07T01:10:56.213Z,42.8
2017-04-07T01:11:28.533Z,42.7
2017-04-07T01:12:00.847Z,42.8
2017-04-07T01:12:33.108Z,42.8
2017-04-07T01:13:05.359Z,42.7
2017-04-07T01:13:37.594Z,42.8
2017-04-07T01:14:09.835Z,42.6
2017-04-07T01:14:42.128Z,42.8
2017-04-07T01:15:14.358Z,42.8
2017-04-07T01:15:46.592Z,42.89
2017-04-07T01:16:18.867Z,42.8
2017-04-07T01:16:51.117Z,42.89
2017-04-07T01:17:23.368Z,42.8
2017-04-07T01:17:56.429Z,42.8
2017-04-07T01:18:28.679Z,42.7
2017-04-07T01:19:00.912Z,42.7
2017-04-07T01:19:33.171Z,42.8
2017-04-07T01:20:05.450Z,42.99
2017-04-07T01:20:37.724Z,42.89
2017-04-07T01:21:09.959Z,43.08
2017-04-07T01:21:42.228Z,42.89
2017-04-07T01:22:14.473Z,42.8
2017-04-07T01:22:46.733Z,42.89
2017-04-07T01:23:18.984Z,42.99
2017-04-07T01:23:51.282Z,42.7
2017-04-07T01:24:23.528Z,42.89
2017-04-07T01:24:55.788Z,42.7
2017-04-07T01:25:28.023Z,42.89
2017-04-07T01:26:00.329Z,42.8
2017-04-07T01:26:33.475Z,42.99
2017-04-07T01:27:05.717Z,42.99
2017-04-07T01:27:37.952Z,42.7
2017-04-07T01:28:10.189Z,42.7
2017-04-07T01:28:42.446Z,42.99
2017-04-07T01:29:14.799Z,42.7
2017-04-07T01:29:47.048Z,42.89
2017-04-07T01:30:19.290Z,42.99
2017-04-07T01:30:51.528Z,42.89
2017-04-07T01:31:23.776Z,42.7
2017-04-07T01:31:56.045Z,42.8
2017-04-07T01:32:28.377Z,42.7
2017-04-07T01:33:00.696Z,42.7
2017-04-07T01:33:33.035Z,42.99
2017-04-07T01:34:05.357Z,42.8
2017-04-07T01:34:37.696Z,42.8
2017-04-07T01:35:10.018Z,42.7
2017-04-07T01:35:42.354Z,42.7
2017-04-07T01:36:14.675Z,42.8
2017-04-07T01:36:47.012Z,42.99
2017-04-07T01:37:19.339Z,42.8
2017-04-07T01:37:51.643Z,42.8
2017-04-07T01:38:23.964Z,42.8
2017-04-07T01:38:56.293Z,42.8
2017-04-07T01:39:28.605Z,42.8
2017-04-07T01:40:00.942Z,42.89
2017-04-07T01:40:33.272Z,42.8
2017-04-07T01:41:05.612Z,42.89
2017-04-07T01:41:37.946Z,42.7
2017-04-07T01:42:10.279Z,42.89
2017-04-07T01:42:42.605Z,42.8
2017-04-07T01:43:14.925Z,42.8
2017-04-07T01:43:47.235Z,42.89
2017-04-07T01:44:19.560Z,42.7
2017-04-07T01:44:51.888Z,42.8
2017-04-07T01:45:24.221Z,42.8
2017-04-07T01:45:56.563Z,42.89
2017-04-07T01:46:28.898Z,42.8
2017-04-07T01:47:01.241Z,42.89
2017-04-07T01:47:33.552Z,42.8
2017-04-07T01:48:05.875Z,42.8
2017-04-07T01:48:38.202Z,42.8
2017-04-07T01:49:10.514Z,42.8
2017-04-07T01:49:42.833Z,42.6
2017-04-07T01:50:15.156Z,42.89
2017-04-07T01:50:47.495Z,42.99
2017-04-07T01:51:19.816Z,42.8
2017-04-07T01:51:52.129Z,42.99
2017-04-07T01:52:24.372Z,42.7
2017-04-07T01:52:56.610Z,43.08
2017-04-07T01:53:28.846Z,42.99
2017-04-07T01:54:01.118Z,42.89
2017-04-07T01:54:33.366Z,42.99
2017-04-07T01:55:05.647Z,42.99
2017-04-07T01:55:37.902Z,42.89
2017-04-07T01:56:10.161Z,42.99
2017-04-07T01:56:42.412Z,42.89
2017-04-07T01:57:15.234Z,42.89
2017-04-07T01:57:47.500Z,42.89
2017-04-07T01:58:20.321Z,42.89
2017-04-07T01:58:52.578Z,42.89
2017-04-07T01:59:25.771Z,42.89
2017-04-07T01:59:58.029Z,42.99
2017-04-07T02:00:30.290Z,42.89
2017-04-07T02:01:02.546Z,42.7
2017-04-07T02:01:35.314Z,42.99
2017-04-07T02:02:07.595Z,42.99
2017-04-07T02:02:39.922Z,43.08
2017-04-07T02:03:12.258Z,42.99
2017-04-07T02:03:44.580Z,42.7
2017-04-07T02:04:16.911Z,42.89
2017-04-07T02:04:49.248Z,43.08
2017-04-07T02:05:21.574Z,42.99
2017-04-07T02:05:53.887Z,42.89
2017-04-07T02:06:26.213Z,42.89
2017-04-07T02:06:58.531Z,42.7
2017-04-07T02:07:30.848Z,42.99
2017-04-07T02:08:03.175Z,42.7
2017-04-07T02:08:35.498Z,42.99
2017-04-07T02:09:07.831Z,42.89
2017-04-07T02:09:40.158Z,42.8
2017-04-07T02:10:12.477Z,42.99
2017-04-07T02:10:44.795Z,42.89
2017-04-07T02:11:17.135Z,42.7
2017-04-07T02:11:50.369Z,42.8
2017-04-07T02:12:22.650Z,43.08
2017-04-07T02:12:54.912Z,42.8
2017-04-07T02:13:27.153Z,42.99
2017-04-07T02:13:59.402Z,42.89
2017-04-07T02:14:31.643Z,42.89
2017-04-07T02:15:03.886Z,42.99
2017-04-07T02:15:36.141Z,42.7
2017-04-07T02:16:08.530Z,42.99
2017-04-07T02:16:40.775Z,42.99
2017-04-07T02:17:13.007Z,42.7
2017-04-07T02:17:45.887Z,42.99
2017-04-07T02:18:18.257Z,42.99
2017-04-07T02:18:50.501Z,43.08
2017-04-07T02:19:22.743Z,42.8
2017-04-07T02:19:55.725Z,42.99
2017-04-07T02:20:27.991Z,42.6
2017-04-07T02:21:00.235Z,42.8
2017-04-07T02:21:32.498Z,42.99
2017-04-07T02:22:04.757Z,42.99
2017-04-07T02:22:37.025Z,42.89
2017-04-07T02:23:09.285Z,42.7
2017-04-07T02:23:41.547Z,42.99
2017-04-07T02:24:13.788Z,42.89
2017-04-07T02:24:46.045Z,42.99
2017-04-07T02:25:18.294Z,42.8
2017-04-07T02:25:50.571Z,42.99
2017-04-07T02:26:22.865Z,42.7
2017-04-07T02:26:55.122Z,42.99
2017-04-07T02:27:27.389Z,43.08
2017-04-07T02:27:59.635Z,42.8
2017-04-07T02:28:31.876Z,42.99
2017-04-07T02:29:04.136Z,42.89
2017-04-07T02:29:36.379Z,42.99
2017-04-07T02:30:08.623Z,42.89
2017-04-07T02:30:41.760Z,42.99
2017-04-07T02:31:14.839Z,42.89
2017-04-07T02:31:47.178Z,42.89
2017-04-07T02:32:19.428Z,42.99
2017-04-07T02:32:51.694Z,42.8
2017-04-07T02:33:23.938Z,42.8
2017-04-07T02:33:56.189Z,42.8
2017-04-07T02:34:28.445Z,42.89
2017-04-07T02:35:00.680Z,42.99
2017-04-07T02:35:32.947Z,42.89
2017-04-07T02:36:05.196Z,42.89
2017-04-07T02:36:37.442Z,42.89
2017-04-07T02:37:09.711Z,42.99
2017-04-07T02:37:41.985Z,42.99
2017-04-07T02:38:14.217Z,42.89
2017-04-07T02:38:46.514Z,42.99
2017-04-07T02:39:18.767Z,43.08
2017-04-07T02:39:51.023Z,42.89
2017-04-07T02:40:23.276Z,42.89
2017-04-07T02:40:55.546Z,42.89
2017-04-07T02:41:27.811Z,42.89
2017-04-07T02:42:00.062Z,42.89
2017-04-07T02:42:32.394Z,42.99
2017-04-07T02:43:04.723Z,42.99
2017-04-07T02:43:37.052Z,42.89
2017-04-07T02:44:09.375Z,43.08
2017-04-07T02:44:41.713Z,42.89
2017-04-07T02:45:14.050Z,42.99
2017-04-07T02:45:46.385Z,43.08
2017-04-07T02:46:18.720Z,43.08
2017-04-07T02:46:51.050Z,42.99
2017-04-07T02:47:23.377Z,43.18
2017-04-07T02:47:55.713Z,43.28
2017-04-07T02:48:28.063Z,42.99
2017-04-07T02:49:00.387Z,42.99
2017-04-07T02:49:32.718Z,43.08
2017-04-07T02:50:05.065Z,42.99
2017-04-07T02:50:37.400Z,42.99
2017-04-07T02:51:09.725Z,43.08
2017-04-07T02:51:42.059Z,42.99
2017-04-07T02:52:14.369Z,43.18
2017-04-07T02:52:46.632Z,43.08
2017-04-07T02:53:18.934Z,42.99
2017-04-07T02:53:51.184Z,43.08
2017-04-07T02:54:23.439Z,43.08
2017-04-07T02:54:55.684Z,42.89
2017-04-07T02:55:27.917Z,43.18
2017-04-07T02:56:00.159Z,43.08
2017-04-07T02:56:32.418Z,43.28
2017-04-07T02:57:05.244Z,43.18
2017-04-07T02:57:37.487Z,43.08
2017-04-07T02:58:09.738Z,43.18
2017-04-07T02:58:41.971Z,42.8
2017-04-07T02:59:14.227Z,43.18
2017-04-07T02:59:46.480Z,43.28
2017-04-07T03:00:19.273Z,43.28
2017-04-07T03:00:51.538Z,42.99
2017-04-07T03:01:23.796Z,42.99
2017-04-07T03:01:56.052Z,42.99
2017-04-07T03:02:28.381Z,43.28
2017-04-07T03:03:00.727Z,43.47
2017-04-07T03:03:33.058Z,43.08
2017-04-07T03:04:05.391Z,42.89
2017-04-07T03:04:37.726Z,43.28
2017-04-07T03:05:10.077Z,43.28
2017-04-07T03:05:42.392Z,43.3
2017-04-07T03:06:14.694Z,43.28
2017-04-07T03:06:47.014Z,42.89
2017-04-07T03:07:19.360Z,43.28
2017-04-07T03:07:51.693Z,43.28
2017-04-07T03:08:24.048Z,42.99
2017-04-07T03:08:56.376Z,42.89
2017-04-07T03:09:28.733Z,43.28
2017-04-07T03:10:01.066Z,43.2
2017-04-07T03:10:33.394Z,43.37
2017-04-07T03:11:05.723Z,43.28
2017-04-07T03:11:38.035Z,43.28
2017-04-07T03:12:10.362Z,43.28
2017-04-07T03:12:42.664Z,43.47
2017-04-07T03:13:14.998Z,43.47
2017-04-07T03:13:47.301Z,43.37
2017-04-07T03:14:19.609Z,43.37
2017-04-07T03:14:51.918Z,43.37
2017-04-07T03:15:24.238Z,43.37
2017-04-07T03:15:56.557Z,42.89
2017-04-07T03:16:28.862Z,43.47
2017-04-07T03:17:01.177Z,43.28
2017-04-07T03:17:33.481Z,43.11
2017-04-07T03:18:05.798Z,43.2
2017-04-07T03:18:38.115Z,43.18
2017-04-07T03:19:10.425Z,43.2
2017-04-07T03:19:42.723Z,43.37
2017-04-07T03:20:15.035Z,43.2
2017-04-07T03:20:47.384Z,43.08
2017-04-07T03:21:19.692Z,43.2
2017-04-07T03:21:52.022Z,43.28
2017-04-07T03:22:24.356Z,43.37
2017-04-07T03:22:56.692Z,43.3
2017-04-07T03:23:29.020Z,43.37
2017-04-07T03:24:01.330Z,43.2
2017-04-07T03:24:33.652Z,43.3
2017-04-07T03:25:05.969Z,43.3
2017-04-07T03:25:38.280Z,43.2
2017-04-07T03:26:10.598Z,43.4
2017-04-07T03:26:42.933Z,43.4
2017-04-07T03:27:15.241Z,43.2
2017-04-07T03:27:47.551Z,43.3
2017-04-07T03:28:19.857Z,43.4
2017-04-07T03:28:52.175Z,43.4
2017-04-07T03:29:24.496Z,43.3
2017-04-07T03:29:56.814Z,43.2
2017-04-07T03:30:29.163Z,43.4
2017-04-07T03:31:01.485Z,43.4
2017-04-07T03:31:33.796Z,43.2
2017-04-07T03:32:06.092Z,43.37
2017-04-07T03:32:38.385Z,43.11
2017-04-07T03:33:10.707Z,43.01
2017-04-07T03:33:43.035Z,43.01
2017-04-07T03:34:15.344Z,43.4
2017-04-07T03:34:47.652Z,43.11
2017-04-07T03:35:19.967Z,43.01
2017-04-07T03:35:52.308Z,43.01
2017-04-07T03:36:24.620Z,43.2
2017-04-07T03:36:56.939Z,43.01
2017-04-07T03:37:29.249Z,43.11
2017-04-07T03:38:01.563Z,43.01
2017-04-07T03:38:33.870Z,43.49
2017-04-07T03:39:06.177Z,43.49
2017-04-07T03:39:38.491Z,43.4
2017-04-07T03:40:10.803Z,43.01
2017-04-07T03:40:43.107Z,43.01
2017-04-07T03:41:15.428Z,43.11
2017-04-07T03:41:47.748Z,43.4
2017-04-07T03:42:20.013Z,43.49
2017-04-07T03:42:52.869Z,43.49
2017-04-07T03:43:25.118Z,43.59
2017-04-07T03:43:57.376Z,43.49
2017-04-07T03:44:29.624Z,43.49
2017-04-07T03:45:01.870Z,43.11
2017-04-07T03:45:34.143Z,43.11
2017-04-07T03:46:06.394Z,43.3
2017-04-07T03:46:38.645Z,43.2
2017-04-07T03:47:11.466Z,43.11
2017-04-07T03:47:43.699Z,43.11
2017-04-07T03:48:15.926Z,43.4
2017-04-07T03:48:48.169Z,43.2
2017-04-07T03:49:20.427Z,43.2
2017-04-07T03:49:53.442Z,43.2
2017-04-07T03:50:26.380Z,43.4
2017-04-07T03:50:58.639Z,43.11
2017-04-07T03:51:30.884Z,43.3
2017-04-07T03:52:03.132Z,43.2
2017-04-07T03:52:35.379Z,43.3
2017-04-07T03:53:07.634Z,43.3
2017-04-07T03:53:39.883Z,43.4
2017-04-07T03:54:12.132Z,43.3
2017-04-07T03:54:44.376Z,43.4
2017-04-07T03:55:16.637Z,43.4
2017-04-07T03:55:48.950Z,43.2
2017-04-07T03:56:21.212Z,43.4
2017-04-07T03:56:53.464Z,43.11
2017-04-07T03:57:25.718Z,43.11
2017-04-07T03:57:58.055Z,43.3
2017-04-07T03:58:30.319Z,43.2
2017-04-07T03:59:02.611Z,43.11
2017-04-07T03:59:34.857Z,43.11
2017-04-07T04:00:07.110Z,43.3
2017-04-07T04:00:39.367Z,43.3
2017-04-07T04:01:12.473Z,43.11
2017-04-07T04:01:44.719Z,43.2
2017-04-07T04:02:16.981Z,43.3
2017-04-07T04:02:49.296Z,43.11
2017-04-07T04:03:21.621Z,43.3
2017-04-07T04:03:53.926Z,43.3
2017-04-07T04:04:26.237Z,43.3
2017-04-07T04:04:58.548Z,43.2
2017-04-07T04:05:30.842Z,43.3
2017-04-07T04:06:03.162Z,43.2
2017-04-07T04:06:35.465Z,43.3
2017-04-07T04:07:07.761Z,43.2
2017-04-07T04:07:40.085Z,43.2
2017-04-07T04:08:12.405Z,43.2
2017-04-07T04:08:44.735Z,43.3
2017-04-07T04:09:17.057Z,43.11
2017-04-07T04:09:49.362Z,43.2
2017-04-07T04:10:21.677Z,43.2
2017-04-07T04:10:53.992Z,43.3
2017-04-07T04:11:26.297Z,43.3
2017-04-07T04:11:58.579Z,43.3
2017-04-07T04:12:30.833Z,43.2
2017-04-07T04:13:03.114Z,43.3
2017-04-07T04:13:35.368Z,43.4
2017-04-07T04:14:07.718Z,43.11
2017-04-07T04:14:39.998Z,43.01
2017-04-07T04:15:12.250Z,43.2
2017-04-07T04:15:44.528Z,43.2
2017-04-07T04:16:16.779Z,43.2
2017-04-07T04:16:49.029Z,43.2
2017-04-07T04:17:21.276Z,43.2
2017-04-07T04:17:53.528Z,43.3
2017-04-07T04:18:25.782Z,43.3
2017-04-07T04:18:58.037Z,43.11
2017-04-07T04:19:30.293Z,43.2
2017-04-07T04:20:02.562Z,43.2
2017-04-07T04:20:34.873Z,43.2
2017-04-07T04:21:07.116Z,43.3
2017-04-07T04:21:39.395Z,43.3
2017-04-07T04:22:11.643Z,43.4
2017-04-07T04:22:43.952Z,43.28
2017-04-07T04:23:16.207Z,43.2
2017-04-07T04:23:48.523Z,43.4
2017-04-07T04:24:20.774Z,43.2
2017-04-07T04:24:53.036Z,43.3
2017-04-07T04:25:25.304Z,43.3
2017-04-07T04:25:57.624Z,43.3
2017-04-07T04:26:29.886Z,43.3
2017-04-07T04:27:02.215Z,43.11
2017-04-07T04:27:34.460Z,43.3
2017-04-07T04:28:07.518Z,43.3
2017-04-07T04:28:39.766Z,43.3
2017-04-07T04:29:12.027Z,43.3
2017-04-07T04:29:44.263Z,43.11
2017-04-07T04:30:16.508Z,43.11
2017-04-07T04:30:48.830Z,43.2
2017-04-07T04:31:21.084Z,43.11
2017-04-07T04:31:53.371Z,43.3
2017-04-07T04:32:25.692Z,43.2
2017-04-07T04:32:58.008Z,43.4
2017-04-07T04:33:30.315Z,43.4
2017-04-07T04:34:02.638Z,43.4
2017-04-07T04:34:34.966Z,43.11
2017-04-07T04:35:07.285Z,43.4
2017-04-07T04:35:39.589Z,43.11
2017-04-07T04:36:11.901Z,43.3
2017-04-07T04:36:44.234Z,43.59
2017-04-07T04:37:16.544Z,43.2
2017-04-07T04:37:48.852Z,43.59
2017-04-07T04:38:21.163Z,43.4
2017-04-07T04:38:53.472Z,43.3
2017-04-07T04:39:25.780Z,43.3
2017-04-07T04:39:58.102Z,43.11
2017-04-07T04:40:30.412Z,43.2
2017-04-07T04:41:02.734Z,43.49
2017-04-07T04:41:35.032Z,43.3
2017-04-07T04:42:07.372Z,43.3
2017-04-07T04:42:40.466Z,43.11
2017-04-07T04:43:12.737Z,43.2
2017-04-07T04:43:45.003Z,43.3
2017-04-07T04:44:17.276Z,43.4
2017-04-07T04:44:49.522Z,43.11
2017-04-07T04:45:21.766Z,43.4
2017-04-07T04:45:54.029Z,43.3
2017-04-07T04:46:26.924Z,43.49
2017-04-07T04:46:59.811Z,43.2
2017-04-07T04:47:32.082Z,43.4
2017-04-07T04:48:04.361Z,43.68
2017-04-07T04:48:36.615Z,43.11
2017-04-07T04:49:08.919Z,43.3
2017-04-07T04:49:41.170Z,43.4
2017-04-07T04:50:13.430Z,43.49
2017-04-07T04:50:45.683Z,43.11
2017-04-07T04:51:18.460Z,43.2
2017-04-07T04:51:51.457Z,43.4
2017-04-07T04:52:23.702Z,43.11
2017-04-07T04:52:56.879Z,43.2
2017-04-07T04:53:29.118Z,43.49
2017-04-07T04:54:01.966Z,43.4
2017-04-07T04:54:34.797Z,43.4
2017-04-07T04:55:07.046Z,43.4
2017-04-07T04:55:39.300Z,43.3
2017-04-07T04:56:11.596Z,43.2
2017-04-07T04:56:44.460Z,43.11
2017-04-07T04:57:16.737Z,43.4
2017-04-07T04:57:48.981Z,43.49
2017-04-07T04:58:21.354Z,43.4
2017-04-07T04:58:53.720Z,43.2
2017-04-07T04:59:25.979Z,43.57
2017-04-07T04:59:58.223Z,43.59
2017-04-07T05:00:30.472Z,43.11
2017-04-07T05:01:02.759Z,43.68
2017-04-07T05:01:35.043Z,43.11
2017-04-07T05:02:07.295Z,43.2
2017-04-07T05:02:39.645Z,43.2
2017-04-07T05:03:11.952Z,43.4
2017-04-07T05:03:44.282Z,43.4
2017-04-07T05:04:16.603Z,43.2
2017-04-07T05:04:48.923Z,43.49
2017-04-07T05:05:21.234Z,43.4
2017-04-07T05:05:53.538Z,43.49
2017-04-07T05:06:25.873Z,43.4
2017-04-07T05:06:58.186Z,43.4
2017-04-07T05:07:30.501Z,43.49
2017-04-07T05:08:02.804Z,43.4
2017-04-07T05:08:35.133Z,43.49
2017-04-07T05:09:09.480Z,42.99
2017-04-07T05:09:41.791Z,43.49
2017-04-07T05:10:14.118Z,43.3
2017-04-07T05:10:46.435Z,43.4
2017-04-07T05:11:18.749Z,43.59
2017-04-07T05:11:51.050Z,43.11
2017-04-07T05:12:23.312Z,43.49
2017-04-07T05:12:55.565Z,43.49
2017-04-07T05:13:27.820Z,43.11
2017-04-07T05:14:00.055Z,43.2
2017-04-07T05:14:32.289Z,43.49
2017-04-07T05:15:04.546Z,43.49
2017-04-07T05:15:37.356Z,43.49
2017-04-07T05:16:09.614Z,43.49
2017-04-07T05:16:41.863Z,43.49
2017-04-07T05:17:14.116Z,43.4
2017-04-07T05:17:46.480Z,43.49
2017-04-07T05:18:18.730Z,43.49
2017-04-07T05:18:50.996Z,43.4
2017-04-07T05:19:23.326Z,43.59
2017-04-07T05:19:55.576Z,43.49
2017-04-07T05:20:27.953Z,43.11
2017-04-07T05:21:00.220Z,43.3
2017-04-07T05:21:32.472Z,43.59
2017-04-07T05:22:04.738Z,43.49
2017-04-07T05:22:37.031Z,43.3
2017-04-07T05:23:09.333Z,43.2
2017-04-07T05:23:41.646Z,43.49
2017-04-07T05:24:13.964Z,43.49
2017-04-07T05:24:46.273Z,43.49
2017-04-07T05:25:18.592Z,43.2
2017-04-07T05:25:50.915Z,43.49
2017-04-07T05:26:23.231Z,43.49
2017-04-07T05:26:55.541Z,43.49
2017-04-07T05:27:27.875Z,43.49
2017-04-07T05:28:00.189Z,43.49
2017-04-07T05:28:32.516Z,43.49
2017-04-07T05:29:04.837Z,43.49
2017-04-07T05:29:37.221Z,43.49
2017-04-07T05:30:09.538Z,43.49
2017-04-07T05:30:41.861Z,43.59
2017-04-07T05:31:14.197Z,43.49
2017-04-07T05:31:46.644Z,43.59
2017-04-07T05:32:18.941Z,43.49
2017-04-07T05:32:51.265Z,43.49
2017-04-07T05:33:23.569Z,43.3
2017-04-07T05:33:55.886Z,43.3
2017-04-07T05:34:28.189Z,43.3
2017-04-07T05:35:00.509Z,43.59
2017-04-07T05:35:32.811Z,43.4
2017-04-07T05:36:05.125Z,43.3
2017-04-07T05:36:37.444Z,43.59
2017-04-07T05:37:09.766Z,43.49
2017-04-07T05:37:42.069Z,43.49
2017-04-07T05:38:14.387Z,43.3
2017-04-07T05:38:46.715Z,43.3
2017-04-07T05:39:19.021Z,43.4
2017-04-07T05:39:51.338Z,43.49
2017-04-07T05:40:25.844Z,43.3
2017-04-07T05:40:59.359Z,43.4
2017-04-07T05:41:31.991Z,43.3
2017-04-07T05:42:04.321Z,43.49
2017-04-07T05:42:36.551Z,43.49
2017-04-07T05:43:08.792Z,43.3
2017-04-07T05:43:41.081Z,43.4
2017-04-07T05:44:13.992Z,43.68
2017-04-07T05:44:46.968Z,43.4
2017-04-07T05:45:19.229Z,43.4
2017-04-07T05:45:51.477Z,43.59
2017-04-07T05:46:23.740Z,43.59
2017-04-07T05:46:55.978Z,43.2
2017-04-07T05:47:28.236Z,43.49
2017-04-07T05:48:00.518Z,43.4
2017-04-07T05:48:32.780Z,43.3
2017-04-07T05:49:05.016Z,43.49
2017-04-07T05:49:37.252Z,43.59
2017-04-07T05:50:09.529Z,43.49
2017-04-07T05:50:41.845Z,43.49
2017-04-07T05:51:14.233Z,43.68
2017-04-07T05:51:46.499Z,43.3
2017-04-07T05:52:18.880Z,43.4
2017-04-07T05:52:51.151Z,43.59
2017-04-07T05:53:23.387Z,43.2
2017-04-07T05:53:55.628Z,43.59
2017-04-07T05:54:27.885Z,43.2
2017-04-07T05:55:01.006Z,43.59
2017-04-07T05:55:33.241Z,43.59
2017-04-07T05:56:05.483Z,43.11
2017-04-07T05:56:38.476Z,43.3
2017-04-07T05:57:10.743Z,43.59
2017-04-07T05:57:43.012Z,43.88
2017-04-07T05:58:16.525Z,43.11
2017-04-07T05:58:48.784Z,43.3
2017-04-07T05:59:21.020Z,43.3
2017-04-07T05:59:54.003Z,43.68
2017-04-07T06:00:26.254Z,43.3
2017-04-07T06:00:59.427Z,43.78
2017-04-07T06:01:31.674Z,43.3
2017-04-07T06:02:03.968Z,43.88
2017-04-07T06:02:36.291Z,43.4
2017-04-07T06:03:08.612Z,43.88
2017-04-07T06:03:40.924Z,43.68
2017-04-07T06:04:13.264Z,43.78
2017-04-07T06:04:45.576Z,43.78
2017-04-07T06:05:17.901Z,43.78
2017-04-07T06:05:50.213Z,43.78
2017-04-07T06:06:22.531Z,43.49
2017-04-07T06:06:54.862Z,43.88
2017-04-07T06:07:27.180Z,43.88
2017-04-07T06:07:59.487Z,43.88
2017-04-07T06:08:31.796Z,43.68
2017-04-07T06:09:04.115Z,43.59
2017-04-07T06:09:36.434Z,43.49
2017-04-07T06:10:10.640Z,43.59
2017-04-07T06:10:43.910Z,43.49
2017-04-07T06:11:16.222Z,43.49
2017-04-07T06:11:48.530Z,43.78
2017-04-07T06:12:20.843Z,43.78
2017-04-07T06:14:12.509Z,43.68
2017-04-07T06:14:44.832Z,43.59
2017-04-07T06:15:17.144Z,43.51
2017-04-07T06:15:49.447Z,43.59
2017-04-07T06:16:21.748Z,43.71
2017-04-07T06:16:54.068Z,43.71
2017-04-07T06:17:26.379Z,43.68
2017-04-07T06:17:58.788Z,43.61
2017-04-07T06:18:31.123Z,43.78
2017-04-07T06:19:03.491Z,43.51
2017-04-07T06:19:36.484Z,43.49
2017-04-07T06:20:08.838Z,43.61
2017-04-07T06:20:41.175Z,43.59
2017-04-07T06:21:13.504Z,43.71
2017-04-07T06:21:45.843Z,43.61
2017-04-07T06:22:18.159Z,43.51
2017-04-07T06:22:50.461Z,43.59
2017-04-07T06:23:22.769Z,43.78
2017-04-07T06:23:55.084Z,43.61
2017-04-07T06:24:27.420Z,43.59
2017-04-07T06:24:59.742Z,43.51
2017-04-07T06:25:32.062Z,43.71
2017-04-07T06:26:04.603Z,43.61
2017-04-07T06:26:36.922Z,43.61
2017-04-07T06:27:09.249Z,43.61
2017-04-07T06:27:41.575Z,43.51
2017-04-07T06:28:13.877Z,43.51
2017-04-07T06:28:46.209Z,43.71
2017-04-07T06:30:38.134Z,43.61
2017-04-07T06:31:10.446Z,43.71
2017-04-07T06:31:42.865Z,43.61
2017-04-07T06:32:15.196Z,43.71
2017-04-07T06:32:47.495Z,43.51
2017-04-07T06:33:19.809Z,43.71
2017-04-07T06:33:52.127Z,43.51
2017-04-07T06:34:24.439Z,43.71
2017-04-07T06:34:56.813Z,43.61
2017-04-07T06:35:29.146Z,43.61
2017-04-07T06:36:01.445Z,43.71
2017-04-07T06:36:33.744Z,43.41
2017-04-07T06:37:06.050Z,43.71
2017-04-07T06:37:38.391Z,43.71
2017-04-07T06:38:10.730Z,43.61
2017-04-07T06:38:43.305Z,43.8
2017-04-07T06:39:15.859Z,43.61
2017-04-07T06:39:48.325Z,43.8
2017-04-07T06:40:22.600Z,43.71
2017-04-07T06:40:55.059Z,43.71
2017-04-07T06:41:27.376Z,43.71
2017-04-07T06:41:59.725Z,43.71
2017-04-07T06:42:31.794Z,43.8
2017-04-07T06:43:04.127Z,43.71
2017-04-07T06:43:36.467Z,43.61
2017-04-07T06:45:28.001Z,43.61
2017-04-07T06:46:00.315Z,43.61
2017-04-07T06:46:32.632Z,43.41
2017-04-07T06:47:04.942Z,43.51
2017-04-07T06:47:37.244Z,43.71
2017-04-07T06:48:09.558Z,43.61
2017-04-07T06:48:41.903Z,43.61
2017-04-07T06:49:14.220Z,43.71
2017-04-07T06:49:46.543Z,43.8
2017-04-07T06:50:18.912Z,43.61
2017-04-07T06:50:51.225Z,43.61
2017-04-07T06:51:23.533Z,43.61
2017-04-07T06:51:55.715Z,43.61
2017-04-07T06:52:28.163Z,43.61
2017-04-07T06:53:00.478Z,43.61
2017-04-07T06:53:32.830Z,43.61
2017-04-07T06:54:05.162Z,43.51
2017-04-07T06:54:37.496Z,43.61
2017-04-07T06:55:09.817Z,43.51
2017-04-07T06:55:42.138Z,43.71
2017-04-07T06:56:14.466Z,43.51
2017-04-07T06:56:46.787Z,43.61
2017-04-07T06:57:19.114Z,43.71
2017-04-07T06:57:51.502Z,43.9
2017-04-07T06:58:23.846Z,43.9
2017-04-07T06:58:56.456Z,43.71
2017-04-07T06:59:28.838Z,43.8
2017-04-07T07:00:01.138Z,43.51
2017-04-07T07:00:33.459Z,43.61
2017-04-07T07:01:05.820Z,43.9
2017-04-07T07:01:38.145Z,43.8
2017-04-07T07:02:11.470Z,43.71
2017-04-07T07:02:43.795Z,43.71
2017-04-07T07:03:16.110Z,43.8
2017-04-07T07:03:48.435Z,43.9
2017-04-07T07:04:20.747Z,43.8
2017-04-07T07:04:53.061Z,43.61
2017-04-07T07:05:25.403Z,43.71
2017-04-07T07:05:57.731Z,43.99